createdAt,value
2022-08-03T00:01:41.187Z,2.25
2022-08-03T00:04:09.993Z,2.00
2022-08-03T00:06:38.201Z,3.15
2022-08-03T00:09:07.660Z,2.58
2022-08-03T00:11:35.518Z,3.20
2022-08-03T00:14:03.632Z,2.83
2022-08-03T00:16:31.440Z,2.63
2022-08-03T00:19:00.739Z,2.95
2022-08-03T00:21:29.184Z,2.53
2022-08-03T00:23:56.942Z,5.00
2022-08-03T00:26:26.357Z,2.75
2022-08-03T00:28:54.140Z,2.13
2022-08-03T00:31:26.483Z,2.95
2022-08-03T00:34:09.671Z,2.97
2022-08-03T00:36:37.425Z,2.38
2022-08-03T00:39:05.218Z,3.35
2022-08-03T00:41:34.548Z,3.85
2022-08-03T00:44:02.358Z,2.85
2022-08-03T00:46:30.221Z,2.78
2022-08-03T00:48:58.275Z,2.65
2022-08-03T00:51:26.258Z,3.00
2022-08-03T00:53:54.014Z,2.90
2022-08-03T00:56:21.802Z,2.60
2022-08-03T00:58:51.169Z,2.50
2022-08-03T01:01:18.969Z,3.00
2022-08-03T01:03:47.025Z,3.08
2022-08-03T01:06:17.928Z,2.95
2022-08-03T01:08:48.765Z,2.63
2022-08-03T01:11:20.142Z,2.42
2022-08-03T01:14:02.014Z,2.72
2022-08-03T01:16:45.601Z,2.80
2022-08-03T01:19:21.749Z,2.30
2022-08-03T01:21:53.592Z,2.97
2022-08-03T01:24:31.710Z,2.90
2022-08-03T01:27:06.438Z,3.40
2022-08-03T01:29:51.549Z,3.28
2022-08-03T01:32:57.970Z,3.08
2022-08-03T01:35:11.174Z,2.90
2022-08-03T01:37:41.618Z,2.88
2022-08-03T01:40:10.613Z,3.00
2022-08-03T01:42:39.540Z,2.85
2022-08-03T01:45:09.976Z,3.08
2022-08-03T01:47:38.136Z,2.70
2022-08-03T01:50:06.921Z,3.05
2022-08-03T01:52:35.361Z,3.10
2022-08-03T01:55:04.088Z,2.53
2022-08-03T01:57:32.030Z,3.08
2022-08-03T02:00:02.460Z,3.50
2022-08-03T02:02:34.582Z,3.72
2022-08-03T02:05:04.555Z,2.85
2022-08-03T02:07:32.935Z,3.08
2022-08-03T02:10:02.042Z,2.72
2022-08-03T02:12:31.058Z,3.45
2022-08-03T02:15:00.082Z,2.78
2022-08-03T02:17:39.304Z,3.33
2022-08-03T02:20:11.967Z,3.33
2022-08-03T02:22:40.740Z,3.30
2022-08-03T02:25:09.371Z,2.90
2022-08-03T02:27:43.130Z,3.05
2022-08-03T02:30:12.458Z,3.38
2022-08-03T02:32:41.586Z,3.60
2022-08-03T02:35:12.986Z,3.17
2022-08-03T02:37:43.243Z,2.78
2022-08-03T02:40:18.837Z,3.28
2022-08-03T02:42:47.756Z,3.33
2022-08-03T02:45:16.774Z,3.20
2022-08-03T02:47:54.600Z,2.60
2022-08-03T02:50:24.932Z,3.90
2022-08-03T02:52:53.526Z,3.05
2022-08-03T02:55:22.618Z,3.10
2022-08-03T02:57:51.078Z,3.17
2022-08-03T03:00:27.668Z,3.75
2022-08-03T03:02:58.427Z,2.85
2022-08-03T03:05:54.961Z,3.25
2022-08-03T03:08:20.557Z,2.92
2022-08-03T03:10:55.805Z,3.10
2022-08-03T03:13:24.098Z,2.92
2022-08-03T03:15:53.169Z,3.22
2022-08-03T03:18:23.008Z,2.90
2022-08-03T03:20:52.885Z,2.75
2022-08-03T03:23:22.605Z,2.83
2022-08-03T03:25:50.947Z,2.72
2022-08-03T03:28:19.028Z,3.45
2022-08-03T03:30:52.841Z,3.75
2022-08-03T03:33:21.606Z,3.53
2022-08-03T03:35:49.674Z,3.08
2022-08-03T03:38:18.781Z,3.13
2022-08-03T03:40:46.654Z,3.35
2022-08-03T03:43:14.784Z,3.08
2022-08-03T03:45:43.010Z,2.92
2022-08-03T03:48:11.241Z,3.78
2022-08-03T03:50:40.942Z,3.35
2022-08-03T03:53:10.328Z,3.47
2022-08-03T03:56:01.610Z,3.08
2022-08-03T03:58:28.102Z,3.25
2022-08-03T04:00:55.893Z,3.90
2022-08-03T04:03:23.898Z,3.80
2022-08-03T04:06:09.000Z,3.58
2022-08-03T04:08:54.492Z,3.17
2022-08-03T04:11:29.356Z,3.67
2022-08-03T04:14:02.369Z,3.25
2022-08-03T04:16:32.764Z,4.27
2022-08-03T04:19:09.054Z,3.30
2022-08-03T04:21:39.410Z,3.30
2022-08-03T04:26:52.792Z,3.67
2022-08-03T04:29:22.083Z,3.72
2022-08-03T04:31:50.067Z,3.15
2022-08-03T04:34:18.014Z,4.03
2022-08-03T04:36:50.805Z,3.95
2022-08-03T04:39:20.777Z,3.55
2022-08-03T04:42:04.315Z,3.63
2022-08-03T04:44:37.448Z,2.92
2022-08-03T04:47:05.619Z,3.65
2022-08-03T04:49:33.853Z,3.38
2022-08-03T04:52:02.433Z,3.67
2022-08-03T04:54:30.346Z,3.85
2022-08-03T04:56:59.785Z,3.53
2022-08-03T04:59:27.569Z,3.58
2022-08-03T05:01:55.996Z,3.75
2022-08-03T05:04:25.244Z,4.18
2022-08-03T05:06:55.181Z,3.25
2022-08-03T05:09:46.004Z,3.92
2022-08-03T05:12:13.042Z,3.75
2022-08-03T05:14:40.841Z,3.20
2022-08-03T05:17:09.055Z,3.28
2022-08-03T05:19:36.907Z,2.97
2022-08-03T05:22:04.688Z,2.92
2022-08-03T05:24:32.739Z,3.25
2022-08-03T05:27:00.954Z,3.58
2022-08-03T05:29:30.061Z,3.05
2022-08-03T05:31:57.920Z,3.58
2022-08-03T05:34:25.689Z,3.90
2022-08-03T05:36:53.458Z,3.97
2022-08-03T05:39:21.482Z,3.65
2022-08-03T05:41:49.267Z,4.65
2022-08-03T05:44:17.411Z,4.18
2022-08-03T05:46:46.597Z,4.00
2022-08-03T05:49:14.781Z,3.90
2022-08-03T05:51:42.900Z,3.70
2022-08-03T05:54:10.676Z,3.47
2022-08-03T05:56:40.951Z,3.50
2022-08-03T05:59:35.700Z,4.78
2022-08-03T06:01:58.337Z,4.03
2022-08-03T06:04:26.487Z,3.55
2022-08-03T06:06:54.264Z,3.42
2022-08-03T06:09:22.062Z,3.75
2022-08-03T06:12:00.025Z,3.30
2022-08-03T06:14:27.859Z,3.75
2022-08-03T06:16:55.655Z,4.18
2022-08-03T06:19:27.831Z,3.67
2022-08-03T06:21:55.641Z,3.87
2022-08-03T06:24:25.124Z,3.17
2022-08-03T06:26:53.175Z,2.85
2022-08-03T06:29:20.962Z,2.95
2022-08-03T06:31:48.961Z,3.17
2022-08-03T06:34:32.155Z,2.88
2022-08-03T06:37:05.417Z,2.17
2022-08-03T06:39:33.569Z,2.97
2022-08-03T06:42:01.345Z,2.42
2022-08-03T06:44:29.199Z,3.35
2022-08-03T06:46:57.344Z,2.22
2022-08-03T06:49:25.363Z,2.28
2022-08-03T06:52:05.914Z,2.58
2022-08-03T06:54:37.050Z,2.47
2022-08-03T06:57:05.756Z,2.15
2022-08-03T07:00:06.002Z,1.92
2022-08-03T07:02:21.577Z,2.10
2022-08-03T07:04:50.270Z,2.00
2022-08-03T07:07:19.294Z,1.58
2022-08-03T07:09:56.861Z,2.13
2022-08-03T07:12:26.709Z,2.10
2022-08-03T07:14:58.182Z,2.20
2022-08-03T07:17:28.518Z,1.98
2022-08-03T07:19:58.279Z,1.95
2022-08-03T07:22:26.484Z,1.60
2022-08-03T07:24:55.980Z,2.10
2022-08-03T07:27:23.802Z,1.80
2022-08-03T07:29:51.600Z,2.20
2022-08-03T07:32:19.604Z,1.52
2022-08-03T07:34:47.953Z,2.35
2022-08-03T07:37:15.805Z,2.00
2022-08-03T07:39:43.685Z,2.13
2022-08-03T07:42:13.089Z,2.05
2022-08-03T07:44:40.918Z,1.95
2022-08-03T07:47:09.145Z,2.33
2022-08-03T07:49:40.363Z,1.70
2022-08-03T07:52:28.392Z,2.28
2022-08-03T07:54:56.401Z,1.40
2022-08-03T07:57:25.664Z,2.03
2022-08-03T08:00:01.356Z,2.80
2022-08-03T08:02:30.323Z,2.05
2022-08-03T08:05:02.158Z,1.77
2022-08-03T08:07:32.912Z,2.13
2022-08-03T08:10:00.851Z,2.17
2022-08-03T08:12:30.032Z,1.45
2022-08-03T08:14:57.840Z,1.52
2022-08-03T08:17:25.777Z,1.55
2022-08-03T08:19:53.649Z,1.60
2022-08-03T08:22:30.382Z,1.80
2022-08-03T08:24:58.905Z,1.48
2022-08-03T08:27:27.254Z,1.80
2022-08-03T08:29:59.604Z,1.92
2022-08-03T08:32:28.720Z,1.73
2022-08-03T08:34:58.149Z,1.48
2022-08-03T08:37:25.915Z,1.40
2022-08-03T08:39:53.779Z,1.38
2022-08-03T08:42:21.532Z,1.45
2022-08-03T08:44:49.925Z,1.75
2022-08-03T08:47:19.809Z,1.23
2022-08-03T08:50:08.615Z,1.80
2022-08-03T08:52:36.696Z,1.33
2022-08-03T08:55:06.749Z,1.73
2022-08-03T08:57:43.244Z,1.65
2022-08-03T09:00:14.393Z,1.58
2022-08-03T09:02:44.497Z,1.92
2022-08-03T09:05:13.428Z,1.73
2022-08-03T09:07:41.498Z,1.77
2022-08-03T09:10:12.915Z,1.50
2022-08-03T09:12:43.755Z,2.08
2022-08-03T09:15:18.614Z,1.60
2022-08-03T09:17:51.067Z,2.53
2022-08-03T09:20:19.615Z,1.95
2022-08-03T09:22:52.841Z,1.92
2022-08-03T09:25:24.882Z,1.83
2022-08-03T09:27:53.520Z,1.50
2022-08-03T09:30:34.087Z,1.98
2022-08-03T09:33:05.336Z,2.13
2022-08-03T09:35:53.222Z,1.80
2022-08-03T09:38:24.058Z,1.83
2022-08-03T09:40:54.825Z,2.13
2022-08-03T09:43:27.585Z,1.70
2022-08-03T09:46:03.740Z,1.75
2022-08-03T09:48:34.794Z,1.20
2022-08-03T09:51:14.041Z,1.50
2022-08-03T09:53:58.885Z,1.85
2022-08-03T09:56:38.863Z,1.50
2022-08-03T09:59:06.985Z,1.92
2022-08-03T10:01:35.710Z,1.60
2022-08-03T10:04:05.543Z,1.10
2022-08-03T10:06:33.719Z,1.60
2022-08-03T10:09:08.896Z,1.60
2022-08-03T10:11:41.161Z,1.70
2022-08-03T10:14:10.558Z,1.77
2022-08-03T10:16:39.347Z,1.60
2022-08-03T10:19:09.764Z,1.77
2022-08-03T10:21:39.339Z,1.65
2022-08-03T10:24:08.459Z,1.65
2022-08-03T10:26:36.996Z,1.30
2022-08-03T10:29:12.444Z,1.48
2022-08-03T10:31:55.926Z,1.40
2022-08-03T10:34:30.104Z,1.35
2022-08-03T10:36:59.759Z,1.50
2022-08-03T10:39:29.520Z,1.67
2022-08-03T10:42:00.058Z,1.65
2022-08-03T10:44:37.471Z,1.83
2022-08-03T10:47:05.755Z,1.48
2022-08-03T10:49:35.687Z,1.50
2022-08-03T10:52:12.832Z,1.35
2022-08-03T10:55:00.382Z,1.60
2022-08-03T10:57:43.891Z,1.45
2022-08-03T11:00:14.223Z,1.70
2022-08-03T11:03:01.244Z,1.30
2022-08-03T11:05:31.460Z,1.48
2022-08-03T11:08:17.925Z,1.60
2022-08-03T11:10:45.757Z,1.45
2022-08-03T11:13:16.902Z,1.60
2022-08-03T11:15:45.414Z,1.40
2022-08-03T11:18:16.107Z,1.05
2022-08-03T11:20:49.407Z,1.73
2022-08-03T11:23:18.432Z,1.83
2022-08-03T11:26:16.004Z,1.60
2022-08-03T11:28:45.787Z,1.48
2022-08-03T11:31:49.125Z,1.42
2022-08-03T11:34:17.818Z,1.38
2022-08-03T11:37:05.464Z,1.50
2022-08-03T11:39:43.519Z,1.42
2022-08-03T11:42:30.035Z,1.25
2022-08-03T11:44:58.299Z,1.48
2022-08-03T11:47:27.863Z,1.63
2022-08-03T11:49:57.363Z,1.50
2022-08-03T11:52:27.356Z,1.20
2022-08-03T11:54:57.708Z,1.42
2022-08-03T11:58:58.248Z,1.50
2022-08-03T12:00:24.430Z,1.10
2022-08-03T12:02:57.598Z,1.20
2022-08-03T12:05:35.957Z,1.40
2022-08-03T12:08:06.631Z,1.08
2022-08-03T12:10:36.448Z,1.17
2022-08-03T12:14:45.265Z,1.02
2022-08-03T12:15:57.609Z,1.27
2022-08-03T12:18:25.711Z,1.67
2022-08-03T12:20:54.313Z,1.20
2022-08-03T12:23:22.056Z,1.25
2022-08-03T12:25:51.449Z,1.45
2022-08-03T12:28:36.432Z,2.63
2022-08-03T12:31:07.637Z,0.98
2022-08-03T12:33:50.327Z,1.40
2022-08-03T12:36:18.384Z,1.25
2022-08-03T12:38:54.992Z,1.25
2022-08-03T12:41:30.452Z,1.08
2022-08-03T12:43:58.252Z,1.15
2022-08-03T12:46:30.988Z,1.30
2022-08-03T12:48:59.804Z,1.17
2022-08-03T12:51:27.970Z,1.52
2022-08-03T12:53:56.411Z,1.10
2022-08-03T12:56:24.252Z,1.48
2022-08-03T12:58:54.033Z,1.33
2022-08-03T13:01:24.414Z,1.30
2022-08-03T13:03:54.728Z,1.20
2022-08-03T13:06:23.920Z,1.20
2022-08-03T13:09:02.238Z,0.85
2022-08-03T13:11:55.611Z,1.30
2022-08-03T13:14:20.061Z,1.30
2022-08-03T13:16:48.524Z,1.27
2022-08-03T13:19:16.368Z,2.17
2022-08-03T13:21:53.783Z,1.30
2022-08-03T13:24:33.114Z,1.27
2022-08-03T13:27:22.472Z,0.90
2022-08-03T13:29:50.153Z,1.23
2022-08-03T13:32:18.494Z,1.10
2022-08-03T13:34:46.569Z,1.40
2022-08-03T13:37:14.641Z,0.95
2022-08-03T13:39:58.109Z,1.10
2022-08-03T13:42:28.487Z,1.38
2022-08-03T13:44:58.194Z,1.38
2022-08-03T13:47:26.302Z,1.30
2022-08-03T13:50:01.730Z,1.05
2022-08-03T13:52:31.526Z,1.17
2022-08-03T13:55:00.152Z,1.00
2022-08-03T13:58:03.025Z,1.05
2022-08-03T14:00:28.014Z,1.10
2022-08-03T14:03:03.842Z,1.20
2022-08-03T14:05:35.655Z,0.90
2022-08-03T14:08:05.721Z,0.65
2022-08-03T14:10:34.387Z,1.50
2022-08-03T14:13:02.490Z,1.08
2022-08-03T14:15:31.725Z,1.00
2022-08-03T14:17:59.497Z,1.00
2022-08-03T14:20:38.683Z,1.00
2022-08-03T14:23:15.815Z,1.00
2022-08-03T14:25:50.200Z,1.20
2022-08-03T14:28:20.845Z,1.17
2022-08-03T14:30:50.183Z,1.08
2022-08-03T14:33:17.976Z,1.08
2022-08-03T14:35:45.801Z,1.45
2022-08-03T14:38:13.592Z,0.90
2022-08-03T14:40:41.564Z,1.10
2022-08-03T14:43:09.359Z,0.80
2022-08-03T14:45:37.141Z,0.70
2022-08-03T14:50:29.465Z,0.90
2022-08-03T14:50:55.222Z,1.00
2022-08-03T14:53:23.864Z,0.70
2022-08-03T14:55:53.382Z,0.95
2022-08-03T14:58:22.202Z,0.98
2022-08-03T15:00:50.780Z,0.80
2022-08-03T15:03:23.084Z,1.02
2022-08-03T15:05:51.126Z,1.00
2022-08-03T15:08:18.973Z,0.90
2022-08-03T15:10:46.761Z,0.93
2022-08-03T15:13:17.369Z,0.80
2022-08-03T15:15:45.249Z,1.10
2022-08-03T15:18:14.768Z,1.20
2022-08-03T15:20:45.852Z,0.98
2022-08-03T15:23:14.434Z,1.83
2022-08-03T15:26:03.828Z,1.25
2022-08-03T15:28:30.564Z,0.90
2022-08-03T15:30:58.764Z,1.00
2022-08-03T15:33:26.546Z,1.70
2022-08-03T15:35:56.400Z,1.30
2022-08-03T15:38:25.799Z,1.15
2022-08-03T15:40:56.820Z,1.00
2022-08-03T15:43:25.130Z,1.20
2022-08-03T15:46:26.413Z,1.17
2022-08-03T15:48:41.099Z,1.10
2022-08-03T15:51:10.885Z,1.15
2022-08-03T15:53:39.054Z,1.35
2022-08-03T15:56:14.237Z,1.02
2022-08-03T15:59:09.885Z,1.30
2022-08-03T16:04:31.543Z,0.98
2022-08-03T16:07:03.443Z,0.95
2022-08-03T16:09:42.763Z,1.02
2022-08-03T16:12:16.383Z,1.02
2022-08-03T16:14:52.844Z,1.17
2022-08-03T16:17:21.621Z,0.95
2022-08-03T16:19:50.148Z,1.33
2022-08-03T16:22:19.466Z,1.30
2022-08-03T16:24:47.978Z,1.33
2022-08-03T16:27:17.632Z,1.17
2022-08-03T16:30:06.175Z,1.13
2022-08-03T16:32:34.086Z,1.40
2022-08-03T16:35:03.767Z,1.15
2022-08-03T16:37:38.608Z,1.05
2022-08-03T16:40:08.904Z,0.95
2022-08-03T16:42:45.627Z,1.30
2022-08-03T16:45:13.648Z,0.95
2022-08-03T16:47:41.430Z,1.00
2022-08-03T16:50:17.240Z,1.50
2022-08-03T16:52:48.775Z,1.23
2022-08-03T16:55:18.541Z,1.10
2022-08-03T16:58:05.528Z,1.48
2022-08-03T17:00:41.556Z,1.13
2022-08-03T17:03:19.134Z,1.65
2022-08-03T17:05:52.272Z,1.42
2022-08-03T17:08:26.699Z,1.33
2022-08-03T17:10:56.147Z,1.20
2022-08-03T17:13:38.787Z,1.20
2022-08-03T17:16:08.596Z,0.90
2022-08-03T17:18:38.626Z,1.10
2022-08-03T17:21:10.264Z,1.48
2022-08-03T17:23:44.370Z,1.48
2022-08-03T17:26:21.631Z,1.10
2022-08-03T17:28:58.009Z,1.90
2022-08-03T17:31:31.234Z,1.27
2022-08-03T17:34:01.445Z,1.27
2022-08-03T17:37:00.920Z,1.30
2022-08-03T17:39:30.768Z,1.40
2022-08-03T17:42:31.123Z,1.38
2022-08-03T17:44:57.156Z,1.70
2022-08-03T17:47:29.186Z,1.50
2022-08-03T17:50:24.781Z,1.88
2022-08-03T17:52:59.351Z,1.48
2022-08-03T17:55:57.715Z,1.55
2022-08-03T17:58:23.276Z,1.50
2022-08-03T18:01:57.523Z,1.30
2022-08-03T18:04:02.753Z,1.55
2022-08-03T18:10:06.289Z,1.98
2022-08-03T18:12:25.971Z,1.55
2022-08-03T18:15:01.326Z,2.00
2022-08-03T18:17:58.306Z,1.77
2022-08-03T18:20:33.156Z,1.95
2022-08-03T18:23:09.905Z,2.38
2022-08-03T18:25:45.310Z,1.77
2022-08-03T18:28:19.650Z,2.13
2022-08-03T18:30:54.020Z,2.75
2022-08-03T18:34:17.831Z,1.52
2022-08-03T18:36:11.237Z,2.00
2022-08-03T18:38:46.629Z,2.08
2022-08-03T18:41:20.544Z,2.53
2022-08-03T18:44:07.092Z,2.15
2022-08-03T18:46:46.331Z,2.50
2022-08-03T18:49:18.630Z,2.67
2022-08-03T18:51:47.259Z,2.30
2022-08-03T18:54:47.061Z,2.55
2022-08-03T18:57:07.599Z,3.30
2022-08-03T18:59:41.502Z,4.80
2022-08-03T19:02:16.870Z,6.03
2022-08-03T19:04:47.011Z,6.05
2022-08-03T19:07:18.057Z,4.95
2022-08-03T19:09:55.286Z,4.90
2022-08-03T19:12:28.062Z,4.20
2022-08-03T19:15:04.869Z,3.17
2022-08-03T19:20:02.270Z,2.95
2022-08-03T19:22:30.226Z,3.33
2022-08-03T19:25:00.112Z,2.65
2022-08-03T19:27:29.043Z,3.08
2022-08-03T19:29:58.526Z,2.85
2022-08-03T19:32:30.046Z,3.67
2022-08-03T19:34:59.564Z,2.42
2022-08-03T19:37:38.021Z,2.60
2022-08-03T19:40:10.307Z,2.78
2022-08-03T19:42:41.071Z,3.63
2022-08-03T19:45:13.998Z,2.40
2022-08-03T19:47:46.197Z,2.67
2022-08-03T19:50:14.584Z,1.85
2022-08-03T19:52:43.892Z,2.00
2022-08-03T19:55:12.320Z,2.10
2022-08-03T19:57:43.241Z,2.17
2022-08-03T20:00:13.972Z,2.65
2022-08-03T20:02:42.104Z,2.03
2022-08-03T20:05:15.631Z,1.90
2022-08-03T20:07:47.591Z,1.58
2022-08-03T20:10:19.216Z,1.80
2022-08-03T20:12:48.696Z,2.42
2022-08-03T20:15:22.439Z,1.63
2022-08-03T20:17:59.525Z,1.80
2022-08-03T20:20:30.033Z,1.85
2022-08-03T20:23:00.181Z,1.85
2022-08-03T20:25:37.913Z,2.10
2022-08-03T20:28:13.502Z,1.60
2022-08-03T20:30:43.603Z,2.03
2022-08-03T20:33:11.404Z,2.03
2022-08-03T20:35:42.038Z,1.90
2022-08-03T20:38:13.771Z,1.80
2022-08-03T20:40:41.611Z,2.60
2022-08-03T20:43:09.394Z,1.80
2022-08-03T20:46:01.243Z,1.88
2022-08-03T20:48:26.479Z,1.90
2022-08-03T20:50:56.505Z,2.05
2022-08-03T20:53:57.381Z,1.55
2022-08-03T20:56:12.549Z,1.88
2022-08-03T20:58:42.735Z,1.60
2022-08-03T21:01:27.543Z,1.67
2022-08-03T21:04:04.619Z,2.03
2022-08-03T21:06:39.653Z,1.90
2022-08-03T21:09:08.427Z,1.80
2022-08-03T21:11:41.953Z,1.83
2022-08-03T21:12:56.702Z,1.77
2022-08-03T21:14:12.786Z,2.00
2022-08-03T21:16:42.817Z,2.42
2022-08-03T21:19:11.475Z,2.50
2022-08-03T21:21:40.660Z,3.15
2022-08-03T21:24:10.832Z,2.60
2022-08-03T21:26:39.581Z,2.75
2022-08-03T21:29:08.598Z,3.55
2022-08-03T21:31:36.404Z,3.03
2022-08-03T21:34:05.094Z,2.75
2022-08-03T21:36:34.101Z,2.28
2022-08-03T21:39:04.048Z,3.25
2022-08-03T21:41:33.008Z,2.25
2022-08-03T21:44:01.364Z,2.10
2022-08-03T21:46:31.552Z,2.05
2022-08-03T21:50:07.872Z,1.90
2022-08-03T21:51:49.918Z,2.50
2022-08-03T21:54:21.063Z,2.50
2022-08-03T21:56:49.132Z,2.97
2022-08-03T21:59:17.651Z,2.85
2022-08-03T22:01:49.103Z,2.50
2022-08-03T22:04:38.742Z,2.47
2022-08-03T22:07:08.530Z,1.90
2022-08-03T22:09:38.132Z,2.63
2022-08-03T22:12:06.562Z,2.30
2022-08-03T22:14:34.649Z,2.10
2022-08-03T22:17:03.380Z,2.20
2022-08-03T22:19:34.476Z,2.50
2022-08-03T22:22:04.581Z,2.20
2022-08-03T22:24:32.811Z,2.05
2022-08-03T22:27:20.469Z,2.22
2022-08-03T22:29:49.763Z,2.08
2022-08-03T22:32:17.649Z,1.88
2022-08-03T22:34:47.172Z,2.17
2022-08-03T22:37:16.542Z,2.10
2022-08-03T22:39:46.030Z,2.63
2022-08-03T22:42:16.301Z,2.20
2022-08-03T22:44:45.086Z,1.80
2022-08-03T22:47:13.953Z,2.70
2022-08-03T22:50:33.331Z,1.95
2022-08-03T22:52:41.217Z,2.42
2022-08-03T22:55:10.476Z,2.35
2022-08-03T22:57:40.028Z,2.10
2022-08-03T23:00:09.909Z,1.90
2022-08-03T23:02:38.458Z,2.15
2022-08-03T23:05:16.760Z,2.20
2022-08-03T23:07:56.282Z,2.10
2022-08-03T23:10:25.537Z,1.95
2022-08-03T23:12:55.791Z,2.50
2022-08-03T23:15:25.401Z,2.22
2022-08-03T23:17:57.517Z,2.30
2022-08-03T23:22:55.098Z,1.88
2022-08-03T23:25:24.932Z,2.70
2022-08-03T23:28:05.940Z,2.63
2022-08-03T23:30:35.491Z,2.63
2022-08-03T23:33:03.869Z,2.88
2022-08-03T23:36:29.698Z,3.13
2022-08-03T23:38:38.080Z,2.40
2022-08-03T23:41:06.397Z,2.97
2022-08-03T23:43:52.347Z,2.67
2022-08-03T23:46:24.317Z,3.22
2022-08-03T23:48:53.711Z,2.97
2022-08-03T23:51:28.781Z,3.28
2022-08-03T23:54:02.482Z,2.67
2022-08-03T23:56:33.690Z,3.38
2022-08-03T23:59:05.706Z,2.72
